ESPECIAL COVID-19 - Dados por Município

Graças a uma força-tarefa de 40 voluntários que, diariamente, compilam boletins epidemiológicos das 27 Secretarias Estaduais de Saúde, disponibilizamos uma base de dados com a série histórica de casos e óbitos confirmados por município. Embora essenciais para o planejamento de políticas de contenção do novo coronavírus, os dados municipais não têm sido divulgados pelo Ministério da Saúde. Ainda como parte desse esforço contínuo de fornecer dados úteis relacionados à pandemia, disponibilizamos outras bases estruturadas, como população dos municípios afetados, óbitos suspeitos registrados em cartório etc.

Panorama Nacional
info Boletins coletados
2.784
info Casos confirmados
497.816
info Óbitos confirmados
28.752 (5,78%)
info Municípios atingidos
4.051 (73%)
info População desses municípios
199M (95%)
info Municípios c/ óbitos
1.700 (42%)

Casos de COVID-19 por estado: Rio Grande do Norte

Panorama Estadual
info Boletins coletados
80
info Casos confirmados
6.463
info Óbitos confirmados
268 (4,15%)
info Municípios atingidos
140 (84%)
info População desses municípios
3M (96%)
info Municípios c/ óbitos
51 (36%)
Carregando   Carregando mapa...
Nota: casos importados não estão representados no mapa.
Data Município Confirmados Confirmados
por 100k hab.
Óbitos Letalidade Óbitos
por 100k hab.
28/05/2020 Acari 3 26,94 0 0,00% 0,00
28/05/2020 Açu 113 194,77 4 3,54% 6,89
28/05/2020 Afonso Bezerra 10 90,62 1 10,00% 9,06
28/05/2020 Alexandria 5 36,83 1 20,00% 7,37
28/05/2020 Almino Afonso 1 21,12 0 0,00% 0,00
28/05/2020 Alto do Rodrigues 37 254,66 4 10,81% 27,53
28/05/2020 Angicos 5 42,68 0 0,00% 0,00
28/05/2020 Antônio Martins 2 27,99 0 0,00% 0,00
28/05/2020 Apodi 208 580,28 5 2,40% 13,95
28/05/2020 Areia Branca 198 712,90 16 8,08% 57,61
28/05/2020 Arês 5 34,95 0 0,00% 0,00
28/05/2020 Baía Formosa 4 43,15 0 0,00% 0,00
28/05/2020 Baraúna 72 253,75 3 4,17% 10,57
28/05/2020 Barcelona 2 50,03 0 0,00% 0,00
28/05/2020 Bento Fernandes 2 36,38 0 0,00% 0,00
28/05/2020 Bom Jesus 4 39,18 1 25,00% 9,79
28/05/2020 Brejinho 7 55,12 0 0,00% 0,00
28/05/2020 Caiçara do Norte 5 76,35 0 0,00% 0,00
28/05/2020 Caiçara do Rio do Vento 7 190,01 1 14,29% 27,14
28/05/2020 Caicó 34 50,04 1 2,94% 1,47
28/05/2020 Campo Redondo 4 35,66 0 0,00% 0,00
28/05/2020 Canguaretama 52 151,71 7 13,46% 20,42
28/05/2020 Caraúbas 33 161,03 0 0,00% 0,00
28/05/2020 Carnaúba dos Dantas 2 24,45 1 50,00% 12,22
28/05/2020 Carnaubais 11 102,24 0 0,00% 0,00
28/05/2020 Ceará-Mirim 78 106,13 7 8,97% 9,52
28/05/2020 Cerro Corá 1 8,95 1 100,00% 8,95
28/05/2020 Coronel João Pessoa 2 40,72 1 50,00% 20,36
28/05/2020 Cruzeta 11 137,53 0 0,00% 0,00
28/05/2020 Currais Novos 23 51,36 1 4,35% 2,23
28/05/2020 Doutor Severiano 6 84,79 0 0,00% 0,00
28/05/2020 Encanto 14 248,32 2 14,29% 35,47
28/05/2020 Espírito Santo 2 19,04 0 0,00% 0,00
28/05/2020 Extremoz 96 335,86 2 2,08% 7,00
28/05/2020 Felipe Guerra 34 568,09 0 0,00% 0,00
28/05/2020 Fernando Pedroza 3 98,23 0 0,00% 0,00
28/05/2020 Florânia 2 21,94 0 0,00% 0,00
28/05/2020 Frutuoso Gomes 4 98,33 0 0,00% 0,00
28/05/2020 Galinhos 1 35,89 0 0,00% 0,00
28/05/2020 Goianinha 35 132,94 0 0,00% 0,00
28/05/2020 Governador Dix-Sept Rosado 7 53,69 0 0,00% 0,00
28/05/2020 Grossos 12 115,57 1 8,33% 9,63
28/05/2020 Guamaré 42 268,22 1 2,38% 6,39
28/05/2020 Ielmo Marinho 12 87,17 1 8,33% 7,26
28/05/2020 Ipanguaçu 26 167,84 5 19,23% 32,28
28/05/2020 Ipueira 2 89,25 0 0,00% 0,00
28/05/2020 Itajá 12 158,98 1 8,33% 13,25
28/05/2020 Itaú 13 221,16 0 0,00% 0,00
28/05/2020 Jaçanã 6 65,70 0 0,00% 0,00
28/05/2020 Jandaíra 1 14,54 0 0,00% 0,00
28/05/2020 Janduís 1 18,98 0 0,00% 0,00
28/05/2020 Januário Cicco 2 19,64 0 0,00% 0,00
28/05/2020 Japi 2 39,56 0 0,00% 0,00
28/05/2020 Jardim de Angicos 1 38,28 0 0,00% 0,00
28/05/2020 Jardim do Seridó 7 56,47 0 0,00% 0,00
28/05/2020 João Câmara 12 34,33 1 8,33% 2,86
28/05/2020 Jucurutu 11 60,13 0 0,00% 0,00
28/05/2020 Lagoa d'Anta 1 14,77 0 0,00% 0,00
28/05/2020 Lagoa de Pedras 3 39,77 1 33,33% 13,26
28/05/2020 Lagoa de Velhos 1 36,60 0 0,00% 0,00
28/05/2020 Lagoa Nova 3 19,21 0 0,00% 0,00
28/05/2020 Lagoa Salgada 3 36,39 0 0,00% 0,00
28/05/2020 Lajes 3 26,60 0 0,00% 0,00
28/05/2020 Lajes Pintadas 7 147,09 0 0,00% 0,00
28/05/2020 Lucrécia 3 75,08 0 0,00% 0,00
28/05/2020 Luís Gomes 2 19,77 0 0,00% 0,00
28/05/2020 Macaíba 107 132,44 5 4,67% 6,19
28/05/2020 Macau 46 144,59 0 0,00% 0,00
28/05/2020 Martins 2 22,92 0 0,00% 0,00
28/05/2020 Maxaranguape 5 40,42 1 20,00% 8,08
28/05/2020 Messias Targino 2 43,47 0 0,00% 0,00
28/05/2020 Montanhas 8 71,10 1 12,50% 8,89
28/05/2020 Monte Alegre 19 84,63 1 5,26% 4,45
28/05/2020 Mossoró 986 331,56 48 4,87% 16,14
28/05/2020 Natal 2.576 291,36 85 3,30% 9,61
28/05/2020 Nísia Floresta 33 119,56 1 3,03% 3,62
28/05/2020 Nova Cruz 29 77,66 1 3,45% 2,68
28/05/2020 Olho-d'Água do Borges 2 46,97 0 0,00% 0,00
28/05/2020 Ouro Branco 1 20,78 0 0,00% 0,00
28/05/2020 Paraná 2 47,01 0 0,00% 0,00
28/05/2020 Paraú 3 79,62 0 0,00% 0,00
28/05/2020 Parazinho 2 38,19 0 0,00% 0,00
28/05/2020 Parelhas 7 32,59 0 0,00% 0,00
28/05/2020 Parnamirim 552 211,11 10 1,81% 3,82
28/05/2020 Passa e Fica 2 15,06 0 0,00% 0,00
28/05/2020 Passagem 1 32,37 0 0,00% 0,00
28/05/2020 Patu 4 31,36 1 25,00% 7,84
28/05/2020 Pau dos Ferros 21 69,09 1 4,76% 3,29
28/05/2020 Pedra Grande 10 308,93 0 0,00% 0,00
28/05/2020 Pedro Avelino 3 44,67 0 0,00% 0,00
28/05/2020 Pedro Velho 3 20,26 0 0,00% 0,00
28/05/2020 Pendências 32 211,51 2 6,25% 13,22
28/05/2020 Pilões 5 130,28 0 0,00% 0,00
28/05/2020 Poço Branco 12 77,86 0 0,00% 0,00
28/05/2020 Portalegre 3 38,13 0 0,00% 0,00
28/05/2020 Porto do Mangue 12 186,42 0 0,00% 0,00
28/05/2020 Pureza 2 20,79 0 0,00% 0,00
28/05/2020 Riacho da Cruz 6 167,64 1 16,67% 27,94
28/05/2020 Riachuelo 7 86,12 0 0,00% 0,00
28/05/2020 Rio do Fogo 9 82,96 0 0,00% 0,00
28/05/2020 Rodolfo Fernandes 2 44,77 0 0,00% 0,00
28/05/2020 Ruy Barbosa 5 138,89 0 0,00% 0,00
28/05/2020 Santa Cruz 39 98,30 0 0,00% 0,00
28/05/2020 Santa Maria 7 126,10 0 0,00% 0,00
28/05/2020 Santana do Matos 10 78,18 0 0,00% 0,00
28/05/2020 Santana do Seridó 2 74,63 0 0,00% 0,00
28/05/2020 Santo Antônio 22 91,15 2 9,09% 8,29
28/05/2020 São Bento do Norte 1 36,40 0 0,00% 0,00
28/05/2020 São Bento do Trairí 3 67,43 0 0,00% 0,00
28/05/2020 São Fernando 2 55,80 0 0,00% 0,00
28/05/2020 São Gonçalo do Amarante 209 204,10 16 7,66% 15,63
28/05/2020 São João do Sabugi 1 16,15 0 0,00% 0,00
28/05/2020 São José de Mipibu 65 148,07 4 6,15% 9,11
28/05/2020 São Miguel 18 76,53 0 0,00% 0,00
28/05/2020 São Miguel do Gostoso 1 9,73 0 0,00% 0,00
28/05/2020 São Paulo do Potengi 13 73,95 0 0,00% 0,00
28/05/2020 São Pedro 14 234,47 0 0,00% 0,00
28/05/2020 São Rafael 15 182,88 1 6,67% 12,19
28/05/2020 São Tomé 18 162,82 1 5,56% 9,05
28/05/2020 São Vicente 1 15,57 0 0,00% 0,00
28/05/2020 Senador Elói de Souza 2 32,86 0 0,00% 0,00
28/05/2020 Senador Georgino Avelino 2 45,05 1 50,00% 22,52
28/05/2020 Serra Caiada 6 57,72 2 33,33% 19,24
28/05/2020 Serra de São Bento 1 17,36 0 0,00% 0,00
28/05/2020 Serra do Mel 16 134,03 0 0,00% 0,00
28/05/2020 Serra Negra do Norte 4 49,52 2 50,00% 24,76
28/05/2020 Serrinha 1 16,05 0 0,00% 0,00
28/05/2020 Severiano Melo 2 81,97 0 0,00% 0,00
28/05/2020 Taboleiro Grande 5 194,86 1 20,00% 38,97
28/05/2020 Taipu 4 32,58 1 25,00% 8,14
28/05/2020 Tenente Ananias 13 120,53 2 15,38% 18,54
28/05/2020 Tenente Laurentino Cruz 6 100,81 0 0,00% 0,00
28/05/2020 Tibau 21 511,45 0 0,00% 0,00
28/05/2020 Tibau do Sul 4 28,21 0 0,00% 0,00
28/05/2020 Touros 49 147,20 4 8,16% 12,02
28/05/2020 Umarizal 4 37,90 0 0,00% 0,00
28/05/2020 Upanema 3 20,47 0 0,00% 0,00
28/05/2020 Várzea 3 54,55 0 0,00% 0,00
28/05/2020 Vera Cruz 3 24,04 0 0,00% 0,00
28/05/2020 Viçosa 1 58,21 0 0,00% 0,00

Baixar dados em CSV